sensor_id;sensor_type;location;lat;lon;timestamp;temperature;humidity
14786;DHT22;7484;49.906;9.058;2023-06-14T00:01:57;17.10;99.90
14786;DHT22;7484;49.906;9.058;2023-06-14T00:04:24;17.10;99.90
14786;DHT22;7484;49.906;9.058;2023-06-14T00:06:51;17.20;1.00
14786;DHT22;7484;49.906;9.058;2023-06-14T00:09:18;17.00;1.00
14786;DHT22;7484;49.906;9.058;2023-06-14T00:11:45;16.90;1.00
14786;DHT22;7484;49.906;9.058;2023-06-14T00:14:11;16.70;1.00
14786;DHT22;7484;49.906;9.058;2023-06-14T00:16:40;16.70;1.00
14786;DHT22;7484;49.906;9.058;2023-06-14T00:19:07;16.60;1.00
14786;DHT22;7484;49.906;9.058;2023-06-14T00:21:36;16.60;1.00
14786;DHT22;7484;49.906;9.058;2023-06-14T00:24:04;16.70;75.30
14786;DHT22;7484;49.906;9.058;2023-06-14T00:26:30;16.70;1.00
14786;DHT22;7484;49.906;9.058;2023-06-14T00:28:57;16.70;99.00
14786;DHT22;7484;49.906;9.058;2023-06-14T00:31:25;16.60;1.00
14786;DHT22;7484;49.906;9.058;2023-06-14T00:33:55;16.30;99.90
14786;DHT22;7484;49.906;9.058;2023-06-14T00:36:21;16.00;99.90
14786;DHT22;7484;49.906;9.058;2023-06-14T00:38:48;16.10;1.00
14786;DHT22;7484;49.906;9.058;2023-06-14T00:41:16;16.10;99.90
14786;DHT22;7484;49.906;9.058;2023-06-14T00:43:42;16.30;1.00
14786;DHT22;7484;49.906;9.058;2023-06-14T00:46:09;16.30;99.90
14786;DHT22;7484;49.906;9.058;2023-06-14T00:48:37;16.40;99.90
14786;DHT22;7484;49.906;9.058;2023-06-14T00:51:07;16.40;99.90
14786;DHT22;7484;49.906;9.058;2023-06-14T00:53:33;16.40;1.00
14786;DHT22;7484;49.906;9.058;2023-06-14T00:56:01;16.20;1.00
14786;DHT22;7484;49.906;9.058;2023-06-14T00:58:28;16.00;1.00
14786;DHT22;7484;49.906;9.058;2023-06-14T01:00:55;15.90;1.00
14786;DHT22;7484;49.906;9.058;2023-06-14T01:03:23;15.90;99.90
14786;DHT22;7484;49.906;9.058;2023-06-14T01:05:56;15.70;99.90
14786;DHT22;7484;49.906;9.058;2023-06-14T01:08:36;15.50;99.90
14786;DHT22;7484;49.906;9.058;2023-06-14T01:11:12;15.60;99.90
14786;DHT22;7484;49.906;9.058;2023-06-14T01:13:40;15.40;99.90
14786;DHT22;7484;49.906;9.058;2023-06-14T01:16:10;15.40;99.90
14786;DHT22;7484;49.906;9.058;2023-06-14T01:18:37;15.30;1.00
14786;DHT22;7484;49.906;9.058;2023-06-14T01:21:04;15.40;99.90
14786;DHT22;7484;49.906;9.058;2023-06-14T01:23:33;15.40;99.90
14786;DHT22;7484;49.906;9.058;2023-06-14T01:26:00;15.30;99.90
14786;DHT22;7484;49.906;9.058;2023-06-14T01:28:31;15.40;1.00
14786;DHT22;7484;49.906;9.058;2023-06-14T01:31:01;15.30;99.90
14786;DHT22;7484;49.906;9.058;2023-06-14T01:33:31;15.30;1.00
14786;DHT22;7484;49.906;9.058;2023-06-14T01:35:59;15.50;1.00
14786;DHT22;7484;49.906;9.058;2023-06-14T01:38:30;15.50;1.00
14786;DHT22;7484;49.906;9.058;2023-06-14T01:41:00;15.40;99.90
14786;DHT22;7484;49.906;9.058;2023-06-14T01:43:30;15.30;1.00
14786;DHT22;7484;49.906;9.058;2023-06-14T01:45:57;15.20;99.90
14786;DHT22;7484;49.906;9.058;2023-06-14T01:48:26;15.20;33.70
14786;DHT22;7484;49.906;9.058;2023-06-14T01:50:53;15.10;99.90
14786;DHT22;7484;49.906;9.058;2023-06-14T01:53:20;15.00;99.90
14786;DHT22;7484;49.906;9.058;2023-06-14T01:55:47;14.90;99.90
14786;DHT22;7484;49.906;9.058;2023-06-14T01:58:15;15.00;99.90
14786;DHT22;7484;49.906;9.058;2023-06-14T02:00:43;15.00;99.90
14786;DHT22;7484;49.906;9.058;2023-06-14T02:03:10;15.00;99.90
14786;DHT22;7484;49.906;9.058;2023-06-14T02:05:37;15.10;1.00
14786;DHT22;7484;49.906;9.058;2023-06-14T02:08:05;15.00;99.90
14786;DHT22;7484;49.906;9.058;2023-06-14T02:10:32;15.20;1.00
14786;DHT22;7484;49.906;9.058;2023-06-14T02:12:59;14.90;87.30
14786;DHT22;7484;49.906;9.058;2023-06-14T02:15:27;14.80;99.90
14786;DHT22;7484;49.906;9.058;2023-06-14T02:18:00;14.60;1.00
14786;DHT22;7484;49.906;9.058;2023-06-14T02:20:27;14.50;1.00
14786;DHT22;7484;49.906;9.058;2023-06-14T02:22:56;14.40;1.00
14786;DHT22;7484;49.906;9.058;2023-06-14T02:25:23;14.60;97.40
14786;DHT22;7484;49.906;9.058;2023-06-14T02:27:50;14.50;99.90
14786;DHT22;7484;49.906;9.058;2023-06-14T02:30:17;14.50;1.00
14786;DHT22;7484;49.906;9.058;2023-06-14T02:32:45;14.30;1.00
14786;DHT22;7484;49.906;9.058;2023-06-14T02:35:14;14.40;1.00
14786;DHT22;7484;49.906;9.058;2023-06-14T02:37:40;14.00;99.90
14786;DHT22;7484;49.906;9.058;2023-06-14T02:40:08;13.90;99.90
14786;DHT22;7484;49.906;9.058;2023-06-14T02:42:35;13.90;1.00
14786;DHT22;7484;49.906;9.058;2023-06-14T02:45:04;14.00;1.00
14786;DHT22;7484;49.906;9.058;2023-06-14T02:47:31;14.10;99.90
14786;DHT22;7484;49.906;9.058;2023-06-14T02:49:59;14.10;1.00
14786;DHT22;7484;49.906;9.058;2023-06-14T02:52:26;14.10;99.90
14786;DHT22;7484;49.906;9.058;2023-06-14T02:54:52;14.10;1.00
14786;DHT22;7484;49.906;9.058;2023-06-14T02:57:19;14.10;1.00
14786;DHT22;7484;49.906;9.058;2023-06-14T02:59:46;14.00;1.00
14786;DHT22;7484;49.906;9.058;2023-06-14T03:02:13;14.20;99.90
14786;DHT22;7484;49.906;9.058;2023-06-14T03:04:40;14.10;93.10
14786;DHT22;7484;49.906;9.058;2023-06-14T03:07:14;13.90;99.90
14786;DHT22;7484;49.906;9.058;2023-06-14T03:09:45;13.70;1.00
14786;DHT22;7484;49.906;9.058;2023-06-14T03:12:12;13.60;1.00
14786;DHT22;7484;49.906;9.058;2023-06-14T03:14:40;13.60;1.00
14786;DHT22;7484;49.906;9.058;2023-06-14T03:17:08;13.50;99.90
14786;DHT22;7484;49.906;9.058;2023-06-14T03:19:38;13.60;99.90
14786;DHT22;7484;49.906;9.058;2023-06-14T03:22:06;13.80;1.00
14786;DHT22;7484;49.906;9.058;2023-06-14T03:24:35;13.80;98.30
14786;DHT22;7484;49.906;9.058;2023-06-14T03:27:08;13.90;1.00
14786;DHT22;7484;49.906;9.058;2023-06-14T03:29:37;13.90;1.00
14786;DHT22;7484;49.906;9.058;2023-06-14T03:32:04;13.80;99.90
14786;DHT22;7484;49.906;9.058;2023-06-14T03:34:37;14.10;1.00
14786;DHT22;7484;49.906;9.058;2023-06-14T03:37:06;14.00;1.00
14786;DHT22;7484;49.906;9.058;2023-06-14T03:39:34;14.00;1.00
14786;DHT22;7484;49.906;9.058;2023-06-14T03:42:02;14.10;1.00
14786;DHT22;7484;49.906;9.058;2023-06-14T03:44:28;14.10;99.90
14786;DHT22;7484;49.906;9.058;2023-06-14T03:46:55;13.90;1.00
14786;DHT22;7484;49.906;9.058;2023-06-14T03:49:23;13.60;1.00
14786;DHT22;7484;49.906;9.058;2023-06-14T03:51:50;13.50;99.90
14786;DHT22;7484;49.906;9.058;2023-06-14T03:54:19;13.40;99.90
14786;DHT22;7484;49.906;9.058;2023-06-14T03:56:49;13.30;1.00
14786;DHT22;7484;49.906;9.058;2023-06-14T03:59:16;13.30;1.00
14786;DHT22;7484;49.906;9.058;2023-06-14T04:01:42;13.50;1.00
14786;DHT22;7484;49.906;9.058;2023-06-14T04:04:10;13.60;99.90
14786;DHT22;7484;49.906;9.058;2023-06-14T04:06:37;13.70;99.90
14786;DHT22;7484;49.906;9.058;2023-06-14T04:09:06;13.80;99.90
14786;DHT22;7484;49.906;9.058;2023-06-14T04:11:34;14.00;1.00
14786;DHT22;7484;49.906;9.058;2023-06-14T04:14:03;14.20;1.00
14786;DHT22;7484;49.906;9.058;2023-06-14T04:16:30;14.10;24.80
14786;DHT22;7484;49.906;9.058;2023-06-14T04:18:58;13.90;99.90
14786;DHT22;7484;49.906;9.058;2023-06-14T04:21:25;13.90;99.90
14786;DHT22;7484;49.906;9.058;2023-06-14T04:23:54;13.90;99.90
14786;DHT22;7484;49.906;9.058;2023-06-14T04:26:24;14.10;99.90
14786;DHT22;7484;49.906;9.058;2023-06-14T04:28:55;14.30;1.00
14786;DHT22;7484;49.906;9.058;2023-06-14T04:31:23;14.50;1.00
14786;DHT22;7484;49.906;9.058;2023-06-14T04:33:50;14.50;1.00
14786;DHT22;7484;49.906;9.058;2023-06-14T04:36:21;14.30;99.90
14786;DHT22;7484;49.906;9.058;2023-06-14T04:38:48;14.10;1.00
14786;DHT22;7484;49.906;9.058;2023-06-14T04:41:20;14.20;1.00
14786;DHT22;7484;49.906;9.058;2023-06-14T04:43:48;14.40;99.90
14786;DHT22;7484;49.906;9.058;2023-06-14T04:46:16;14.50;13.90
14786;DHT22;7484;49.906;9.058;2023-06-14T04:48:45;14.60;1.00
14786;DHT22;7484;49.906;9.058;2023-06-14T04:51:13;14.70;1.00
14786;DHT22;7484;49.906;9.058;2023-06-14T04:53:40;14.80;1.00
14786;DHT22;7484;49.906;9.058;2023-06-14T04:56:07;14.80;1.00
14786;DHT22;7484;49.906;9.058;2023-06-14T04:58:35;14.90;99.90
14786;DHT22;7484;49.906;9.058;2023-06-14T05:01:02;15.10;99.90
14786;DHT22;7484;49.906;9.058;2023-06-14T05:03:29;15.20;1.00
14786;DHT22;7484;49.906;9.058;2023-06-14T05:05:58;15.30;1.00
14786;DHT22;7484;49.906;9.058;2023-06-14T05:08:26;15.30;1.00
14786;DHT22;7484;49.906;9.058;2023-06-14T05:10:53;15.30;1.00
14786;DHT22;7484;49.906;9.058;2023-06-14T05:13:21;15.60;1.00
14786;DHT22;7484;49.906;9.058;2023-06-14T05:15:48;15.80;1.00
14786;DHT22;7484;49.906;9.058;2023-06-14T05:18:15;16.00;99.90
14786;DHT22;7484;49.906;9.058;2023-06-14T05:20:42;16.20;1.00
14786;DHT22;7484;49.906;9.058;2023-06-14T05:23:10;16.40;99.90
14786;DHT22;7484;49.906;9.058;2023-06-14T05:25:41;16.70;99.90
14786;DHT22;7484;49.906;9.058;2023-06-14T05:28:08;17.00;76.10
14786;DHT22;7484;49.906;9.058;2023-06-14T05:30:35;17.10;99.90
14786;DHT22;7484;49.906;9.058;2023-06-14T05:33:02;17.20;99.90
14786;DHT22;7484;49.906;9.058;2023-06-14T05:35:29;17.20;99.90
14786;DHT22;7484;49.906;9.058;2023-06-14T05:37:56;17.50;99.90
14786;DHT22;7484;49.906;9.058;2023-06-14T05:40:24;17.80;1.00
14786;DHT22;7484;49.906;9.058;2023-06-14T05:42:50;18.00;99.90
14786;DHT22;7484;49.906;9.058;2023-06-14T05:45:18;18.10;99.90
14786;DHT22;7484;49.906;9.058;2023-06-14T05:47:44;18.30;1.00
14786;DHT22;7484;49.906;9.058;2023-06-14T05:50:11;18.50;1.00
14786;DHT22;7484;49.906;9.058;2023-06-14T05:52:38;18.70;99.90
14786;DHT22;7484;49.906;9.058;2023-06-14T05:55:05;18.90;30.00
14786;DHT22;7484;49.906;9.058;2023-06-14T05:57:33;19.10;1.00
14786;DHT22;7484;49.906;9.058;2023-06-14T06:00:01;19.30;1.00
14786;DHT22;7484;49.906;9.058;2023-06-14T06:02:37;19.40;1.00
14786;DHT22;7484;49.906;9.058;2023-06-14T06:05:05;19.60;1.00
14786;DHT22;7484;49.906;9.058;2023-06-14T06:07:32;19.70;99.90
14786;DHT22;7484;49.906;9.058;2023-06-14T06:09:59;19.80;99.90
14786;DHT22;7484;49.906;9.058;2023-06-14T06:12:25;19.80;99.90
14786;DHT22;7484;49.906;9.058;2023-06-14T06:14:53;19.90;99.90
14786;DHT22;7484;49.906;9.058;2023-06-14T06:17:20;20.00;99.90
14786;DHT22;7484;49.906;9.058;2023-06-14T06:19:47;20.10;86.20
14786;DHT22;7484;49.906;9.058;2023-06-14T06:22:14;20.20;35.00
14786;DHT22;7484;49.906;9.058;2023-06-14T06:24:40;20.40;54.80
14786;DHT22;7484;49.906;9.058;2023-06-14T06:27:07;20.60;14.90
14786;DHT22;7484;49.906;9.058;2023-06-14T06:29:34;20.60;1.00
14786;DHT22;7484;49.906;9.058;2023-06-14T06:32:03;20.60;1.00
14786;DHT22;7484;49.906;9.058;2023-06-14T06:34:29;20.30;19.40
14786;DHT22;7484;49.906;9.058;2023-06-14T06:36:56;20.30;18.00
14786;DHT22;7484;49.906;9.058;2023-06-14T06:39:23;20.40;1.00
14786;DHT22;7484;49.906;9.058;2023-06-14T06:41:49;20.50;1.00
14786;DHT22;7484;49.906;9.058;2023-06-14T06:44:26;20.60;1.00
14786;DHT22;7484;49.906;9.058;2023-06-14T06:46:55;20.80;1.00
14786;DHT22;7484;49.906;9.058;2023-06-14T06:49:23;20.90;1.00
14786;DHT22;7484;49.906;9.058;2023-06-14T06:52:03;21.00;1.00
14786;DHT22;7484;49.906;9.058;2023-06-14T06:54:30;21.10;1.00
14786;DHT22;7484;49.906;9.058;2023-06-14T06:56:57;21.20;1.00
14786;DHT22;7484;49.906;9.058;2023-06-14T06:59:24;21.30;1.00
14786;DHT22;7484;49.906;9.058;2023-06-14T07:01:51;21.50;1.00
14786;DHT22;7484;49.906;9.058;2023-06-14T07:04:18;21.60;1.00
14786;DHT22;7484;49.906;9.058;2023-06-14T07:06:46;21.60;1.00
14786;DHT22;7484;49.906;9.058;2023-06-14T07:09:13;21.60;1.00
14786;DHT22;7484;49.906;9.058;2023-06-14T07:11:42;21.70;1.00
14786;DHT22;7484;49.906;9.058;2023-06-14T07:14:09;21.80;1.00
14786;DHT22;7484;49.906;9.058;2023-06-14T07:16:36;21.90;1.00
14786;DHT22;7484;49.906;9.058;2023-06-14T07:19:03;21.80;1.00
14786;DHT22;7484;49.906;9.058;2023-06-14T07:21:30;21.80;1.00
14786;DHT22;7484;49.906;9.058;2023-06-14T07:23:58;21.70;1.00
14786;DHT22;7484;49.906;9.058;2023-06-14T07:26:24;21.40;1.00
14786;DHT22;7484;49.906;9.058;2023-06-14T07:28:51;21.60;1.00
14786;DHT22;7484;49.906;9.058;2023-06-14T07:31:19;21.70;1.00
14786;DHT22;7484;49.906;9.058;2023-06-14T07:33:45;21.50;1.00
14786;DHT22;7484;49.906;9.058;2023-06-14T07:36:12;21.50;1.00
14786;DHT22;7484;49.906;9.058;2023-06-14T07:38:39;21.70;1.00
14786;DHT22;7484;49.906;9.058;2023-06-14T07:41:07;21.70;1.00
14786;DHT22;7484;49.906;9.058;2023-06-14T07:43:34;21.60;1.00
14786;DHT22;7484;49.906;9.058;2023-06-14T07:46:01;21.60;1.00
14786;DHT22;7484;49.906;9.058;2023-06-14T07:48:28;21.70;1.00
14786;DHT22;7484;49.906;9.058;2023-06-14T07:50:55;22.00;1.00
14786;DHT22;7484;49.906;9.058;2023-06-14T07:53:21;22.20;1.00
14786;DHT22;7484;49.906;9.058;2023-06-14T07:55:48;22.30;1.00
14786;DHT22;7484;49.906;9.058;2023-06-14T07:58:17;22.30;1.00
14786;DHT22;7484;49.906;9.058;2023-06-14T08:00:44;22.50;1.00
14786;DHT22;7484;49.906;9.058;2023-06-14T08:03:11;22.20;1.00
14786;DHT22;7484;49.906;9.058;2023-06-14T08:05:38;22.30;1.00
14786;DHT22;7484;49.906;9.058;2023-06-14T08:08:05;22.50;1.00
14786;DHT22;7484;49.906;9.058;2023-06-14T08:10:32;22.50;1.00
14786;DHT22;7484;49.906;9.058;2023-06-14T08:12:58;22.50;1.00
14786;DHT22;7484;49.906;9.058;2023-06-14T08:15:26;22.70;1.00
14786;DHT22;7484;49.906;9.058;2023-06-14T08:17:53;22.80;1.00
14786;DHT22;7484;49.906;9.058;2023-06-14T08:20:20;22.70;1.00
14786;DHT22;7484;49.906;9.058;2023-06-14T08:22:47;22.60;1.00
14786;DHT22;7484;49.906;9.058;2023-06-14T08:25:14;22.60;1.00
14786;DHT22;7484;49.906;9.058;2023-06-14T08:27:40;22.50;1.00
14786;DHT22;7484;49.906;9.058;2023-06-14T08:30:08;22.70;1.00
14786;DHT22;7484;49.906;9.058;2023-06-14T08:32:36;22.90;1.00
14786;DHT22;7484;49.906;9.058;2023-06-14T08:35:04;23.10;1.00
14786;DHT22;7484;49.906;9.058;2023-06-14T08:37:32;23.20;1.00
14786;DHT22;7484;49.906;9.058;2023-06-14T08:39:59;23.40;1.00
14786;DHT22;7484;49.906;9.058;2023-06-14T08:42:26;23.30;1.00
14786;DHT22;7484;49.906;9.058;2023-06-14T08:44:53;23.20;1.00
14786;DHT22;7484;49.906;9.058;2023-06-14T08:47:20;23.40;1.00
14786;DHT22;7484;49.906;9.058;2023-06-14T08:49:48;23.70;1.00
14786;DHT22;7484;49.906;9.058;2023-06-14T08:52:19;23.90;1.00
14786;DHT22;7484;49.906;9.058;2023-06-14T08:54:46;24.00;1.00
14786;DHT22;7484;49.906;9.058;2023-06-14T08:57:14;24.30;1.00
14786;DHT22;7484;49.906;9.058;2023-06-14T08:59:46;24.40;1.00
14786;DHT22;7484;49.906;9.058;2023-06-14T09:02:14;24.30;1.00
14786;DHT22;7484;49.906;9.058;2023-06-14T09:04:43;23.90;1.00
14786;DHT22;7484;49.906;9.058;2023-06-14T09:07:11;23.80;1.00
14786;DHT22;7484;49.906;9.058;2023-06-14T09:09:39;23.60;1.00
14786;DHT22;7484;49.906;9.058;2023-06-14T09:12:08;23.40;1.00
14786;DHT22;7484;49.906;9.058;2023-06-14T09:14:36;23.40;1.00
14786;DHT22;7484;49.906;9.058;2023-06-14T09:17:05;23.70;1.00
14786;DHT22;7484;49.906;9.058;2023-06-14T09:19:34;24.00;1.00
14786;DHT22;7484;49.906;9.058;2023-06-14T09:22:01;24.10;1.00
14786;DHT22;7484;49.906;9.058;2023-06-14T09:24:30;24.20;1.00
14786;DHT22;7484;49.906;9.058;2023-06-14T09:26:57;24.30;1.00
14786;DHT22;7484;49.906;9.058;2023-06-14T09:29:24;24.50;1.00
14786;DHT22;7484;49.906;9.058;2023-06-14T09:31:52;24.40;1.00
14786;DHT22;7484;49.906;9.058;2023-06-14T09:34:21;24.20;1.00
14786;DHT22;7484;49.906;9.058;2023-06-14T09:36:49;24.20;1.00
14786;DHT22;7484;49.906;9.058;2023-06-14T09:39:17;24.20;1.00
14786;DHT22;7484;49.906;9.058;2023-06-14T09:41:45;23.70;1.00
14786;DHT22;7484;49.906;9.058;2023-06-14T09:44:12;23.80;1.00
14786;DHT22;7484;49.906;9.058;2023-06-14T09:46:39;24.00;1.00
14786;DHT22;7484;49.906;9.058;2023-06-14T09:49:06;23.90;1.00
14786;DHT22;7484;49.906;9.058;2023-06-14T09:51:34;23.80;1.00
14786;DHT22;7484;49.906;9.058;2023-06-14T09:54:03;23.90;1.00
14786;DHT22;7484;49.906;9.058;2023-06-14T09:56:34;23.80;1.00
14786;DHT22;7484;49.906;9.058;2023-06-14T09:59:04;23.80;1.00
14786;DHT22;7484;49.906;9.058;2023-06-14T10:01:33;23.60;1.00
14786;DHT22;7484;49.906;9.058;2023-06-14T10:04:02;23.70;1.00
14786;DHT22;7484;49.906;9.058;2023-06-14T10:06:30;23.70;1.00
14786;DHT22;7484;49.906;9.058;2023-06-14T10:08:58;23.10;1.00
14786;DHT22;7484;49.906;9.058;2023-06-14T10:11:26;23.10;1.00
14786;DHT22;7484;49.906;9.058;2023-06-14T10:13:53;23.30;1.00
14786;DHT22;7484;49.906;9.058;2023-06-14T10:16:27;23.90;1.00
14786;DHT22;7484;49.906;9.058;2023-06-14T10:19:02;24.40;1.00
14786;DHT22;7484;49.906;9.058;2023-06-14T10:21:41;24.60;1.00
14786;DHT22;7484;49.906;9.058;2023-06-14T10:24:13;24.90;1.00
14786;DHT22;7484;49.906;9.058;2023-06-14T10:26:50;24.90;1.00
14786;DHT22;7484;49.906;9.058;2023-06-14T10:29:17;24.70;1.00
14786;DHT22;7484;49.906;9.058;2023-06-14T10:31:47;24.30;1.00
14786;DHT22;7484;49.906;9.058;2023-06-14T10:34:21;24.00;1.00
14786;DHT22;7484;49.906;9.058;2023-06-14T10:37:01;24.10;1.00
14786;DHT22;7484;49.906;9.058;2023-06-14T10:39:28;23.90;1.00
14786;DHT22;7484;49.906;9.058;2023-06-14T10:41:56;23.90;1.00
14786;DHT22;7484;49.906;9.058;2023-06-14T10:44:43;23.90;1.00
14786;DHT22;7484;49.906;9.058;2023-06-14T10:47:29;23.80;1.00
14786;DHT22;7484;49.906;9.058;2023-06-14T10:50:02;23.80;1.00
14786;DHT22;7484;49.906;9.058;2023-06-14T10:52:33;23.80;1.00
14786;DHT22;7484;49.906;9.058;2023-06-14T10:55:06;23.80;1.00
14786;DHT22;7484;49.906;9.058;2023-06-14T10:57:35;23.80;1.00
14786;DHT22;7484;49.906;9.058;2023-06-14T11:00:04;23.80;1.00
14786;DHT22;7484;49.906;9.058;2023-06-14T11:05:49;23.90;1.00
14786;DHT22;7484;49.906;9.058;2023-06-14T11:11:22;24.00;1.00
14786;DHT22;7484;49.906;9.058;2023-06-14T11:13:51;24.10;1.00
14786;DHT22;7484;49.906;9.058;2023-06-14T11:16:18;24.30;1.00
14786;DHT22;7484;49.906;9.058;2023-06-14T11:18:45;24.50;1.00
14786;DHT22;7484;49.906;9.058;2023-06-14T11:21:17;24.80;1.00
14786;DHT22;7484;49.906;9.058;2023-06-14T11:23:49;25.20;1.00
14786;DHT22;7484;49.906;9.058;2023-06-14T11:26:24;25.50;1.00
14786;DHT22;7484;49.906;9.058;2023-06-14T11:28:55;26.10;1.00
14786;DHT22;7484;49.906;9.058;2023-06-14T11:31:22;26.40;1.00
14786;DHT22;7484;49.906;9.058;2023-06-14T11:33:50;26.10;1.00
14786;DHT22;7484;49.906;9.058;2023-06-14T11:36:18;25.70;1.00
14786;DHT22;7484;49.906;9.058;2023-06-14T11:38:45;25.50;1.00
14786;DHT22;7484;49.906;9.058;2023-06-14T11:41:11;25.30;1.00
14786;DHT22;7484;49.906;9.058;2023-06-14T11:43:39;25.30;1.00
14786;DHT22;7484;49.906;9.058;2023-06-14T11:46:12;25.50;1.00
14786;DHT22;7484;49.906;9.058;2023-06-14T11:48:41;25.50;1.00
14786;DHT22;7484;49.906;9.058;2023-06-14T11:51:08;25.50;1.00
14786;DHT22;7484;49.906;9.058;2023-06-14T11:53:38;25.70;1.00
14786;DHT22;7484;49.906;9.058;2023-06-14T11:56:05;26.00;1.00
14786;DHT22;7484;49.906;9.058;2023-06-14T11:58:32;26.10;1.00
14786;DHT22;7484;49.906;9.058;2023-06-14T12:00:59;26.00;1.00
14786;DHT22;7484;49.906;9.058;2023-06-14T12:03:26;25.90;1.00
14786;DHT22;7484;49.906;9.058;2023-06-14T12:06:04;26.10;1.00
14786;DHT22;7484;49.906;9.058;2023-06-14T12:08:33;26.40;1.00
14786;DHT22;7484;49.906;9.058;2023-06-14T12:11:05;26.70;1.00
14786;DHT22;7484;49.906;9.058;2023-06-14T12:13:34;27.30;1.00
14786;DHT22;7484;49.906;9.058;2023-06-14T12:16:02;27.40;1.00
14786;DHT22;7484;49.906;9.058;2023-06-14T12:18:33;27.50;1.00
14786;DHT22;7484;49.906;9.058;2023-06-14T12:21:00;27.60;1.00
14786;DHT22;7484;49.906;9.058;2023-06-14T12:23:39;27.70;1.00
14786;DHT22;7484;49.906;9.058;2023-06-14T12:26:07;27.60;1.00
14786;DHT22;7484;49.906;9.058;2023-06-14T12:28:34;27.20;1.00
14786;DHT22;7484;49.906;9.058;2023-06-14T12:31:00;26.90;1.00
14786;DHT22;7484;49.906;9.058;2023-06-14T12:33:27;26.60;1.00
14786;DHT22;7484;49.906;9.058;2023-06-14T12:35:55;26.30;1.00
14786;DHT22;7484;49.906;9.058;2023-06-14T12:38:22;26.10;1.00
14786;DHT22;7484;49.906;9.058;2023-06-14T12:40:49;26.10;1.00
14786;DHT22;7484;49.906;9.058;2023-06-14T12:43:17;26.50;1.00
14786;DHT22;7484;49.906;9.058;2023-06-14T12:45:44;26.90;1.00
14786;DHT22;7484;49.906;9.058;2023-06-14T12:48:11;27.20;1.00
14786;DHT22;7484;49.906;9.058;2023-06-14T12:50:37;27.40;1.00
14786;DHT22;7484;49.906;9.058;2023-06-14T12:53:04;27.50;1.00
14786;DHT22;7484;49.906;9.058;2023-06-14T12:55:32;27.70;1.00
14786;DHT22;7484;49.906;9.058;2023-06-14T12:57:58;27.90;1.00
14786;DHT22;7484;49.906;9.058;2023-06-14T13:00:26;27.90;1.00
14786;DHT22;7484;49.906;9.058;2023-06-14T13:02:55;27.90;1.00
14786;DHT22;7484;49.906;9.058;2023-06-14T13:05:22;28.00;1.00
14786;DHT22;7484;49.906;9.058;2023-06-14T13:07:49;28.10;1.00
14786;DHT22;7484;49.906;9.058;2023-06-14T13:10:16;27.90;1.00
14786;DHT22;7484;49.906;9.058;2023-06-14T13:12:42;27.60;1.00
14786;DHT22;7484;49.906;9.058;2023-06-14T13:15:10;27.40;1.00
14786;DHT22;7484;49.906;9.058;2023-06-14T13:17:38;27.20;1.00
14786;DHT22;7484;49.906;9.058;2023-06-14T13:20:06;27.00;1.00
14786;DHT22;7484;49.906;9.058;2023-06-14T13:22:33;26.80;1.00
14786;DHT22;7484;49.906;9.058;2023-06-14T13:25:00;26.60;1.00
14786;DHT22;7484;49.906;9.058;2023-06-14T13:27:27;26.60;1.00
14786;DHT22;7484;49.906;9.058;2023-06-14T13:29:54;26.70;1.00
14786;DHT22;7484;49.906;9.058;2023-06-14T13:32:21;26.60;1.00
14786;DHT22;7484;49.906;9.058;2023-06-14T13:34:49;26.30;1.00
14786;DHT22;7484;49.906;9.058;2023-06-14T13:37:16;26.30;1.00
14786;DHT22;7484;49.906;9.058;2023-06-14T13:39:42;26.70;1.00
14786;DHT22;7484;49.906;9.058;2023-06-14T13:42:09;27.10;1.00
14786;DHT22;7484;49.906;9.058;2023-06-14T13:44:37;27.60;1.00
14786;DHT22;7484;49.906;9.058;2023-06-14T13:47:04;27.70;1.00
14786;DHT22;7484;49.906;9.058;2023-06-14T13:49:31;27.50;1.00
14786;DHT22;7484;49.906;9.058;2023-06-14T13:51:59;27.50;1.00
14786;DHT22;7484;49.906;9.058;2023-06-14T13:54:26;27.40;1.00
14786;DHT22;7484;49.906;9.058;2023-06-14T13:56:53;27.10;1.00
14786;DHT22;7484;49.906;9.058;2023-06-14T13:59:20;27.10;1.00
14786;DHT22;7484;49.906;9.058;2023-06-14T14:01:47;27.60;1.00
14786;DHT22;7484;49.906;9.058;2023-06-14T14:04:14;28.10;1.00
14786;DHT22;7484;49.906;9.058;2023-06-14T14:06:41;28.40;1.00
14786;DHT22;7484;49.906;9.058;2023-06-14T14:09:09;28.70;1.00
14786;DHT22;7484;49.906;9.058;2023-06-14T14:11:36;28.60;1.00
14786;DHT22;7484;49.906;9.058;2023-06-14T14:14:05;28.50;1.00
14786;DHT22;7484;49.906;9.058;2023-06-14T14:16:32;28.40;1.00
14786;DHT22;7484;49.906;9.058;2023-06-14T14:18:58;28.10;1.00
14786;DHT22;7484;49.906;9.058;2023-06-14T14:21:25;28.00;1.00
14786;DHT22;7484;49.906;9.058;2023-06-14T14:23:52;27.90;1.00
14786;DHT22;7484;49.906;9.058;2023-06-14T14:26:20;28.00;1.00
14786;DHT22;7484;49.906;9.058;2023-06-14T14:28:47;28.10;1.00
14786;DHT22;7484;49.906;9.058;2023-06-14T14:31:14;28.30;1.00
14786;DHT22;7484;49.906;9.058;2023-06-14T14:33:40;28.60;1.00
14786;DHT22;7484;49.906;9.058;2023-06-14T14:36:07;28.70;1.00
14786;DHT22;7484;49.906;9.058;2023-06-14T14:38:34;28.80;1.00
14786;DHT22;7484;49.906;9.058;2023-06-14T14:41:01;28.60;1.00
14786;DHT22;7484;49.906;9.058;2023-06-14T14:43:29;28.40;1.00
14786;DHT22;7484;49.906;9.058;2023-06-14T14:45:57;28.50;1.00
14786;DHT22;7484;49.906;9.058;2023-06-14T14:48:24;28.80;1.00
14786;DHT22;7484;49.906;9.058;2023-06-14T14:50:50;28.80;1.00
14786;DHT22;7484;49.906;9.058;2023-06-14T14:53:17;28.50;1.00
14786;DHT22;7484;49.906;9.058;2023-06-14T14:55:44;28.30;1.00
14786;DHT22;7484;49.906;9.058;2023-06-14T14:58:12;28.00;1.00
14786;DHT22;7484;49.906;9.058;2023-06-14T15:00:44;27.80;1.00
14786;DHT22;7484;49.906;9.058;2023-06-14T15:03:11;27.50;1.00
14786;DHT22;7484;49.906;9.058;2023-06-14T15:05:38;27.20;1.00
14786;DHT22;7484;49.906;9.058;2023-06-14T15:08:05;26.90;1.00
14786;DHT22;7484;49.906;9.058;2023-06-14T15:10:37;26.60;1.00
14786;DHT22;7484;49.906;9.058;2023-06-14T15:13:05;26.30;1.00
14786;DHT22;7484;49.906;9.058;2023-06-14T15:15:32;26.30;1.00
14786;DHT22;7484;49.906;9.058;2023-06-14T15:18:00;26.30;1.00
14786;DHT22;7484;49.906;9.058;2023-06-14T15:20:27;26.30;1.00
14786;DHT22;7484;49.906;9.058;2023-06-14T15:22:54;26.30;1.00
14786;DHT22;7484;49.906;9.058;2023-06-14T15:25:24;26.60;1.00
14786;DHT22;7484;49.906;9.058;2023-06-14T15:27:51;26.80;1.00
14786;DHT22;7484;49.906;9.058;2023-06-14T15:30:18;27.00;1.00
14786;DHT22;7484;49.906;9.058;2023-06-14T15:32:45;27.30;1.00
14786;DHT22;7484;49.906;9.058;2023-06-14T15:35:13;27.40;1.00
14786;DHT22;7484;49.906;9.058;2023-06-14T15:37:40;27.50;1.00
14786;DHT22;7484;49.906;9.058;2023-06-14T15:40:07;27.70;1.00
14786;DHT22;7484;49.906;9.058;2023-06-14T15:42:34;27.80;1.00
14786;DHT22;7484;49.906;9.058;2023-06-14T15:45:01;27.90;1.00
14786;DHT22;7484;49.906;9.058;2023-06-14T15:47:28;28.10;1.00
14786;DHT22;7484;49.906;9.058;2023-06-14T15:49:55;28.30;1.00
14786;DHT22;7484;49.906;9.058;2023-06-14T15:52:23;28.40;1.00
14786;DHT22;7484;49.906;9.058;2023-06-14T15:54:50;28.20;1.00
14786;DHT22;7484;49.906;9.058;2023-06-14T15:57:16;28.10;1.00
14786;DHT22;7484;49.906;9.058;2023-06-14T15:59:43;27.90;1.00
14786;DHT22;7484;49.906;9.058;2023-06-14T16:02:10;27.70;1.00
14786;DHT22;7484;49.906;9.058;2023-06-14T16:04:36;27.60;1.00
14786;DHT22;7484;49.906;9.058;2023-06-14T16:07:03;27.40;1.00
14786;DHT22;7484;49.906;9.058;2023-06-14T16:09:31;27.60;1.00